createdAt,value
2018-05-28T00:02:11.603Z,17.09
2018-05-28T00:04:37.395Z,17.04
2018-05-28T00:07:03.186Z,16.99
2018-05-28T00:09:28.998Z,16.99
2018-05-28T00:11:54.793Z,17.08
2018-05-28T00:14:20.578Z,17.18
2018-05-28T00:16:46.409Z,17.17
2018-05-28T00:19:12.203Z,17.06
2018-05-28T00:21:37.996Z,17.09
2018-05-28T00:24:03.793Z,17.11
2018-05-28T00:26:29.575Z,17.09
2018-05-28T00:28:55.370Z,17.02
2018-05-28T00:31:21.176Z,17.09
2018-05-28T00:33:46.960Z,17.27
2018-05-28T00:36:12.745Z,17.40
2018-05-28T00:38:38.543Z,17.34
2018-05-28T00:41:04.350Z,17.23
2018-05-28T00:43:30.135Z,17.02
2018-05-28T00:45:55.916Z,16.96
2018-05-28T00:48:21.756Z,16.90
2018-05-28T00:50:47.532Z,17.12
2018-05-28T00:53:13.321Z,17.23
2018-05-28T00:55:46.275Z,16.94
2018-05-28T00:58:12.056Z,17.21
2018-05-28T01:00:37.836Z,17.23
2018-05-28T01:03:03.635Z,17.13
2018-05-28T01:05:29.428Z,17.13
2018-05-28T01:07:55.221Z,17.14
2018-05-28T01:10:21.008Z,17.20
2018-05-28T01:12:46.808Z,17.43
2018-05-28T01:15:12.606Z,17.38
2018-05-28T01:17:38.410Z,17.47
2018-05-28T01:20:04.191Z,17.48
2018-05-28T01:22:29.998Z,17.49
2018-05-28T01:24:55.806Z,17.48
2018-05-28T01:27:21.585Z,17.43
2018-05-28T01:29:47.396Z,17.44
2018-05-28T01:32:13.172Z,17.49
2018-05-28T01:34:38.944Z,17.50
2018-05-28T01:37:04.763Z,17.42
2018-05-28T01:39:30.549Z,17.43
2018-05-28T01:41:56.325Z,17.40
2018-05-28T01:44:22.380Z,17.43
2018-05-28T01:46:48.181Z,17.53
2018-05-28T01:49:13.961Z,17.53
2018-05-28T01:51:39.776Z,17.51
2018-05-28T01:54:05.562Z,17.47
2018-05-28T01:56:31.361Z,17.38
2018-05-28T01:58:57.149Z,17.45
2018-05-28T02:01:22.966Z,17.37
2018-05-28T02:03:48.772Z,17.38
2018-05-28T02:06:14.552Z,17.36
2018-05-28T02:08:40.345Z,17.25
2018-05-28T02:11:06.143Z,17.15
2018-05-28T02:13:31.962Z,17.14
2018-05-28T02:15:57.752Z,16.99
2018-05-28T02:18:23.549Z,17.01
2018-05-28T02:20:49.332Z,16.93
2018-05-28T02:23:15.150Z,16.95
2018-05-28T02:25:40.921Z,16.87
2018-05-28T02:28:06.710Z,16.87
2018-05-28T02:30:32.601Z,16.93
2018-05-28T02:32:58.394Z,16.85
2018-05-28T02:35:24.215Z,16.91
2018-05-28T02:37:50.005Z,16.82
2018-05-28T02:40:15.813Z,16.83
2018-05-28T02:42:41.598Z,16.85
2018-05-28T02:45:07.382Z,16.88
2018-05-28T02:47:33.196Z,16.93
2018-05-28T02:49:58.977Z,16.89
2018-05-28T02:52:24.764Z,16.94
2018-05-28T02:54:50.565Z,17.00
2018-05-28T02:57:16.353Z,17.01
2018-05-28T02:59:42.187Z,17.00
2018-05-28T03:02:07.994Z,16.97
2018-05-28T03:04:33.792Z,16.93
2018-05-28T03:06:59.615Z,16.78
2018-05-28T03:09:25.393Z,16.61
2018-05-28T03:11:51.178Z,16.51
2018-05-28T03:14:17.271Z,16.50
2018-05-28T03:16:43.054Z,16.49
2018-05-28T03:19:08.840Z,16.46
2018-05-28T03:21:34.652Z,16.48
2018-05-28T03:24:00.434Z,16.50
2018-05-28T03:26:26.234Z,16.43
2018-05-28T03:28:52.208Z,16.50
2018-05-28T03:31:17.995Z,16.44
2018-05-28T03:33:43.790Z,16.37
2018-05-28T03:36:09.599Z,16.40
2018-05-28T03:38:35.369Z,16.37
2018-05-28T03:41:01.149Z,16.37
2018-05-28T03:43:26.949Z,16.35
2018-05-28T03:45:52.741Z,16.36
2018-05-28T03:48:18.532Z,16.26
2018-05-28T03:50:44.304Z,16.34
2018-05-28T03:53:10.108Z,16.36
2018-05-28T03:55:35.898Z,16.37
2018-05-28T03:58:01.701Z,16.39
2018-05-28T04:00:39.994Z,16.36
2018-05-28T04:03:18.792Z,16.40
2018-05-28T04:05:57.116Z,16.35
2018-05-28T04:08:23.659Z,16.33
2018-05-28T04:10:49.671Z,16.38
2018-05-28T04:13:16.242Z,16.32
2018-05-28T04:15:42.854Z,16.31
2018-05-28T04:18:08.694Z,16.31
2018-05-28T04:20:34.489Z,16.32
2018-05-28T04:23:00.545Z,16.35
2018-05-28T04:25:26.328Z,16.36
2018-05-28T04:27:52.107Z,16.31
2018-05-28T04:30:18.285Z,16.35
2018-05-28T04:32:44.067Z,16.38
2018-05-28T04:35:09.921Z,16.32
2018-05-28T04:37:35.690Z,16.32
2018-05-28T04:40:01.482Z,16.33
2018-05-28T04:42:27.289Z,16.28
2018-05-28T04:44:53.075Z,16.37
2018-05-28T04:47:18.854Z,16.44
2018-05-28T04:49:44.628Z,16.36
2018-05-28T04:52:10.431Z,16.43
2018-05-28T04:54:36.210Z,16.55
2018-05-28T04:57:02.007Z,16.53
2018-05-28T04:59:27.808Z,16.51
2018-05-28T05:01:53.597Z,16.60
2018-05-28T05:04:19.389Z,16.61
2018-05-28T05:06:45.172Z,16.64
2018-05-28T05:09:10.941Z,16.61
2018-05-28T05:11:36.726Z,16.74
2018-05-28T05:14:02.527Z,16.79
2018-05-28T05:16:28.296Z,16.70
2018-05-28T05:18:54.080Z,16.72
2018-05-28T05:21:19.877Z,16.72
2018-05-28T05:23:45.653Z,16.80
2018-05-28T05:26:11.470Z,16.85
2018-05-28T05:28:37.252Z,16.87
2018-05-28T05:31:03.056Z,16.90
2018-05-28T05:33:28.868Z,17.06
2018-05-28T05:35:54.640Z,17.13
2018-05-28T05:38:27.508Z,17.16
2018-05-28T05:40:53.286Z,17.20
2018-05-28T05:43:19.273Z,17.32
2018-05-28T05:45:45.092Z,17.37
2018-05-28T05:48:10.874Z,17.34
2018-05-28T05:50:36.665Z,17.42
2018-05-28T05:53:02.537Z,17.45
2018-05-28T05:55:28.325Z,17.50
2018-05-28T05:57:54.121Z,17.45
2018-05-28T06:00:19.927Z,17.55
2018-05-28T06:02:45.704Z,17.59
2018-05-28T06:05:11.486Z,17.58
2018-05-28T06:07:37.285Z,17.66
2018-05-28T06:10:03.084Z,17.55
2018-05-28T06:12:28.866Z,17.64
2018-05-28T06:14:54.849Z,17.69
2018-05-28T06:17:20.779Z,17.72
2018-05-28T06:19:46.563Z,17.78
2018-05-28T06:22:12.413Z,17.81
2018-05-28T06:24:38.223Z,17.86
2018-05-28T06:27:04.021Z,17.95
2018-05-28T06:29:29.813Z,18.02
2018-05-28T06:31:55.905Z,18.05
2018-05-28T06:34:21.796Z,18.24
2018-05-28T06:36:47.805Z,18.31
2018-05-28T06:39:13.616Z,18.47
2018-05-28T06:41:39.489Z,18.52
2018-05-28T06:44:05.594Z,18.69
2018-05-28T06:46:31.409Z,18.80
2018-05-28T06:48:57.225Z,18.87
2018-05-28T06:51:23.147Z,19.01
2018-05-28T06:53:48.990Z,19.11
2018-05-28T06:56:15.322Z,19.23
2018-05-28T06:58:41.584Z,19.23
2018-05-28T07:01:07.424Z,19.28
2018-05-28T07:03:33.225Z,19.37
2018-05-28T07:05:59.021Z,19.49
2018-05-28T07:08:24.841Z,19.53
2018-05-28T07:10:50.638Z,19.62
2018-05-28T07:13:16.834Z,19.67
2018-05-28T07:15:42.749Z,19.77
2018-05-28T07:18:08.712Z,19.86
2018-05-28T07:20:34.568Z,19.93
2018-05-28T07:23:00.377Z,19.99
2018-05-28T07:25:26.182Z,20.04
2018-05-28T07:27:52.289Z,20.07
2018-05-28T07:30:18.188Z,20.16
2018-05-28T07:32:44.172Z,20.23
2018-05-28T07:35:10.303Z,20.33
2018-05-28T07:37:36.747Z,20.27
2018-05-28T07:40:02.658Z,20.27
2018-05-28T07:42:29.027Z,20.40
2018-05-28T07:44:55.125Z,20.44
2018-05-28T07:47:20.853Z,20.58
2018-05-28T07:49:46.690Z,20.59
2018-05-28T07:52:12.514Z,20.61
2018-05-28T07:54:38.318Z,20.75
2018-05-28T07:57:04.615Z,20.85
2018-05-28T07:59:30.661Z,20.92
2018-05-28T08:01:56.496Z,21.04
2018-05-28T08:04:22.300Z,21.10
2018-05-28T08:06:48.436Z,21.16
2018-05-28T08:09:14.193Z,21.27
2018-05-28T08:11:40.008Z,21.30
2018-05-28T08:14:05.814Z,21.36
2018-05-28T08:16:31.700Z,21.29
2018-05-28T08:18:57.518Z,21.30
2018-05-28T08:21:23.323Z,21.43
2018-05-28T08:23:49.139Z,21.57
2018-05-28T08:26:14.938Z,21.59
2018-05-28T08:28:40.793Z,21.69
2018-05-28T08:31:06.663Z,21.73
2018-05-28T08:33:32.465Z,21.88
2018-05-28T08:35:58.269Z,21.95
2018-05-28T08:38:24.098Z,22.02
2018-05-28T08:40:49.914Z,22.09
2018-05-28T08:43:15.717Z,22.06
2018-05-28T08:45:41.612Z,22.15
2018-05-28T08:48:07.408Z,22.16
2018-05-28T08:50:33.207Z,22.17
2018-05-28T08:52:59.028Z,22.26
2018-05-28T08:55:24.825Z,22.29
2018-05-28T08:57:50.650Z,22.34
2018-05-28T09:00:16.469Z,22.37
2018-05-28T09:02:42.326Z,22.53
2018-05-28T09:05:08.116Z,22.65
2018-05-28T09:07:34.190Z,22.69
2018-05-28T09:09:59.989Z,22.74
2018-05-28T09:12:25.835Z,22.89
2018-05-28T09:14:51.633Z,22.86
2018-05-28T09:17:17.496Z,22.86
2018-05-28T09:19:43.321Z,22.95
2018-05-28T09:22:09.490Z,22.99
2018-05-28T09:24:35.328Z,22.93
2018-05-28T09:27:01.157Z,23.07
2018-05-28T09:29:26.977Z,23.21
2018-05-28T09:31:53.274Z,23.26
2018-05-28T09:34:19.080Z,23.21
2018-05-28T09:36:45.635Z,23.36
2018-05-28T09:39:11.445Z,23.36
2018-05-28T09:41:37.264Z,23.41
2018-05-28T09:44:03.097Z,23.48
2018-05-28T09:46:28.888Z,23.56
2018-05-28T09:48:54.809Z,23.63
2018-05-28T09:51:20.782Z,23.72
2018-05-28T09:53:46.617Z,23.88
2018-05-28T09:56:13.284Z,23.81
2018-05-28T09:58:39.482Z,24.08
2018-05-28T10:01:06.031Z,24.18
2018-05-28T10:03:32.084Z,24.32
2018-05-28T10:05:57.937Z,24.49
2018-05-28T10:08:24.423Z,24.45
2018-05-28T10:10:50.407Z,24.49
2018-05-28T10:13:16.461Z,24.58
2018-05-28T10:15:42.579Z,24.59
2018-05-28T10:18:08.624Z,24.71
2018-05-28T10:20:34.656Z,24.83
2018-05-28T10:23:00.494Z,24.94
2018-05-28T10:25:26.328Z,24.84
2018-05-28T10:27:52.374Z,25.13
2018-05-28T10:30:18.272Z,25.26
2018-05-28T10:32:45.063Z,25.12
2018-05-28T10:35:12.097Z,25.16
2018-05-28T10:37:38.732Z,25.26
2018-05-28T10:40:05.666Z,25.16
2018-05-28T10:42:32.492Z,25.08
2018-05-28T10:44:59.478Z,24.94
2018-05-28T10:47:27.209Z,25.14
2018-05-28T10:49:55.505Z,25.20
2018-05-28T10:52:22.644Z,25.39
2018-05-28T10:54:50.186Z,25.48
2018-05-28T10:57:17.179Z,25.40
2018-05-28T11:12:50.680Z,25.66
2018-05-28T11:15:17.188Z,25.62
2018-05-28T11:17:43.059Z,25.58
2018-05-28T11:20:09.131Z,25.73
2018-05-28T11:22:34.995Z,25.83
2018-05-28T11:25:01.030Z,25.45
2018-05-28T11:27:26.845Z,25.66
2018-05-28T11:29:52.652Z,25.87
2018-05-28T11:32:18.484Z,26.14
2018-05-28T11:34:44.282Z,26.28
2018-05-28T11:37:10.655Z,26.12
2018-05-28T11:39:36.426Z,26.25
2018-05-28T11:42:02.230Z,26.39
2018-05-28T11:44:28.049Z,26.63
2018-05-28T11:46:54.802Z,26.40
2018-05-28T11:51:54.467Z,26.27
2018-05-28T11:54:20.281Z,26.36
2018-05-28T11:56:46.075Z,26.27
2018-05-28T11:59:11.871Z,26.34
2018-05-28T12:01:37.690Z,26.56
2018-05-28T12:04:03.482Z,26.69
2018-05-28T12:06:29.271Z,26.57
2018-05-28T12:08:55.094Z,26.59
2018-05-28T12:11:20.888Z,26.78
2018-05-28T12:13:46.674Z,26.76
2018-05-28T12:16:12.832Z,26.52
2018-05-28T12:18:38.623Z,26.58
2018-05-28T12:21:04.439Z,26.51
2018-05-28T12:23:30.262Z,26.67
2018-05-28T12:25:56.053Z,26.51
2018-05-28T12:28:21.849Z,26.51
2018-05-28T12:30:47.658Z,26.50
2018-05-28T12:33:13.452Z,26.79
2018-05-28T12:35:39.259Z,27.26
2018-05-28T12:38:05.054Z,27.17
2018-05-28T12:40:30.835Z,27.44
2018-05-28T12:42:56.645Z,27.34
2018-05-28T12:45:22.438Z,27.32
2018-05-28T12:47:48.238Z,27.71
2018-05-28T12:50:14.025Z,27.87
2018-05-28T12:52:39.811Z,28.30
2018-05-28T12:55:05.640Z,28.46
2018-05-28T12:57:31.440Z,28.41
2018-05-28T12:59:57.213Z,28.68
2018-05-28T13:02:23.022Z,28.72
2018-05-28T13:04:48.806Z,29.12
2018-05-28T13:07:14.598Z,29.68
2018-05-28T13:09:40.562Z,30.06
2018-05-28T13:12:06.365Z,30.56
2018-05-28T13:14:32.182Z,29.84
2018-05-28T13:16:58.071Z,29.45
2018-05-28T13:19:23.869Z,29.71
2018-05-28T13:21:49.653Z,29.99
2018-05-28T13:24:15.447Z,30.29
2018-05-28T13:26:41.237Z,30.57
2018-05-28T13:29:07.024Z,30.68
2018-05-28T13:31:32.815Z,30.96
2018-05-28T13:33:58.621Z,31.21
2018-05-28T13:36:24.386Z,31.21
2018-05-28T13:38:50.181Z,31.40
2018-05-28T13:41:16.002Z,30.87
2018-05-28T13:43:41.812Z,31.23
2018-05-28T13:46:07.605Z,31.08
2018-05-28T13:48:33.407Z,31.23
2018-05-28T13:50:59.322Z,31.26
2018-05-28T13:53:25.089Z,31.20
2018-05-28T13:55:50.865Z,31.65
2018-05-28T13:58:16.650Z,31.51
2018-05-28T14:00:42.435Z,31.12
2018-05-28T14:03:08.233Z,31.75
2018-05-28T14:05:34.011Z,31.44
2018-05-28T14:07:59.805Z,31.41
2018-05-28T14:10:25.656Z,31.56
2018-05-28T14:12:51.444Z,31.24
2018-05-28T14:15:17.249Z,31.33
2018-05-28T14:17:43.445Z,31.64
2018-05-28T14:20:09.254Z,31.52
2018-05-28T14:22:35.080Z,31.54
2018-05-28T14:25:00.852Z,31.71
2018-05-28T14:27:26.669Z,31.68
2018-05-28T14:29:52.466Z,31.31
2018-05-28T14:32:18.251Z,31.08
2018-05-28T14:34:44.030Z,31.67
2018-05-28T14:37:09.825Z,31.72
2018-05-28T14:39:35.616Z,32.20
2018-05-28T14:42:01.394Z,31.79
2018-05-28T14:44:27.209Z,31.69
2018-05-28T14:46:52.990Z,31.43
2018-05-28T14:49:18.850Z,31.18
2018-05-28T14:51:44.652Z,31.35
2018-05-28T14:54:10.442Z,31.36
2018-05-28T14:56:36.226Z,31.46
2018-05-28T14:59:02.042Z,31.06
2018-05-28T15:01:27.837Z,31.16
2018-05-28T15:03:53.639Z,31.30
2018-05-28T15:06:19.410Z,31.15
2018-05-28T15:08:45.231Z,30.96
2018-05-28T15:11:11.041Z,30.93
2018-05-28T15:13:36.817Z,31.06
2018-05-28T15:16:02.617Z,30.65
2018-05-28T15:18:28.431Z,30.35
2018-05-28T15:20:54.221Z,30.37
2018-05-28T15:23:19.993Z,30.05
2018-05-28T15:25:46.057Z,29.93
2018-05-28T15:28:11.854Z,29.76
2018-05-28T15:30:37.641Z,29.80
2018-05-28T15:33:03.462Z,29.81
2018-05-28T15:35:29.249Z,29.67
2018-05-28T15:37:55.030Z,29.57
2018-05-28T15:40:20.822Z,29.46
2018-05-28T15:42:46.610Z,29.27
2018-05-28T15:45:12.420Z,29.26
2018-05-28T15:47:38.250Z,29.32
2018-05-28T15:50:04.047Z,29.61
2018-05-28T15:52:29.831Z,29.77
2018-05-28T15:54:55.666Z,29.66
2018-05-28T15:57:21.425Z,29.84
2018-05-28T15:59:47.208Z,29.84
2018-05-28T16:02:13.003Z,30.17
2018-05-28T16:04:38.804Z,30.25
2018-05-28T16:07:04.613Z,30.00
2018-05-28T16:09:30.562Z,30.06
2018-05-28T16:11:56.468Z,30.31
2018-05-28T16:14:22.297Z,30.29
2018-05-28T16:16:48.117Z,30.02
2018-05-28T16:19:14.108Z,30.04
2018-05-28T16:21:40.019Z,29.98
2018-05-28T16:24:05.873Z,29.62
2018-05-28T16:26:31.843Z,29.33
2018-05-28T16:28:58.281Z,29.16
2018-05-28T16:31:24.121Z,29.08
2018-05-28T16:33:49.949Z,29.03
2018-05-28T16:36:16.321Z,29.00
2018-05-28T16:38:42.251Z,28.93
2018-05-28T16:41:08.062Z,28.68
2018-05-28T16:43:33.849Z,28.48
2018-05-28T16:45:59.669Z,28.56
2018-05-28T16:48:25.465Z,28.47
2018-05-28T16:50:51.256Z,28.33
2018-05-28T16:53:17.057Z,28.36
2018-05-28T16:55:42.841Z,28.22
2018-05-28T16:58:09.253Z,28.15
2018-05-28T17:00:35.108Z,28.10
2018-05-28T17:03:00.861Z,28.04
2018-05-28T17:05:26.679Z,28.07
2018-05-28T17:07:52.479Z,28.02
2018-05-28T17:10:18.273Z,27.96
2018-05-28T17:12:44.704Z,27.99
2018-05-28T17:15:10.868Z,28.01
2018-05-28T17:17:36.729Z,27.92
2018-05-28T17:20:02.568Z,27.84
2018-05-28T17:22:28.346Z,27.82
2018-05-28T17:24:54.147Z,27.79
2018-05-28T17:27:19.997Z,27.68
2018-05-28T17:29:45.778Z,27.47
2018-05-28T17:32:11.618Z,27.46
2018-05-28T17:34:37.424Z,27.40
2018-05-28T17:37:03.224Z,27.42
2018-05-28T17:39:29.050Z,27.23
2018-05-28T17:41:54.857Z,27.17
2018-05-28T17:44:20.632Z,26.98
2018-05-28T17:46:46.723Z,26.95
2018-05-28T17:49:12.693Z,26.90
2018-05-28T17:51:38.817Z,26.88
2018-05-28T17:54:04.650Z,26.84
2018-05-28T17:56:30.444Z,26.74
2018-05-28T17:58:56.469Z,26.75
2018-05-28T18:01:22.308Z,26.70
2018-05-28T18:03:48.112Z,26.55
2018-05-28T18:06:13.905Z,26.51
2018-05-28T18:08:39.699Z,26.49
2018-05-28T18:11:05.507Z,26.38
2018-05-28T18:13:31.564Z,26.33
2018-05-28T18:15:57.767Z,26.18
2018-05-28T18:18:23.910Z,26.19
2018-05-28T18:20:49.814Z,26.11
2018-05-28T18:23:15.593Z,26.15
2018-05-28T18:25:41.397Z,26.10
2018-05-28T18:28:07.268Z,26.07
2018-05-28T18:30:33.058Z,25.91
2018-05-28T18:32:59.179Z,25.84
2018-05-28T18:35:25.304Z,25.83
2018-05-28T18:37:51.089Z,25.83
2018-05-28T18:40:17.020Z,25.78
2018-05-28T18:42:42.972Z,25.73
2018-05-28T18:45:08.761Z,25.61
2018-05-28T18:47:34.560Z,25.59
2018-05-28T18:50:00.342Z,25.54
2018-05-28T18:52:26.133Z,25.42
2018-05-28T18:54:51.948Z,25.28
2018-05-28T18:57:17.740Z,25.20
2018-05-28T18:59:43.521Z,25.18
2018-05-28T19:02:09.630Z,25.12
2018-05-28T19:04:35.451Z,25.06
2018-05-28T19:07:01.243Z,24.99
2018-05-28T19:09:27.033Z,25.02
2018-05-28T19:11:53.801Z,25.00
2018-05-28T19:14:19.601Z,24.93
2018-05-28T19:16:45.409Z,24.86
2018-05-28T19:19:11.462Z,24.84
2018-05-28T19:21:37.258Z,24.85
2018-05-28T19:24:03.154Z,24.76
2018-05-28T19:26:28.940Z,24.72
2018-05-28T19:28:54.732Z,24.72
2018-05-28T19:31:20.775Z,24.67
2018-05-28T19:33:47.332Z,24.66
2018-05-28T19:36:13.128Z,24.68
2018-05-28T19:38:38.930Z,24.62
2018-05-28T19:41:04.700Z,24.51
2018-05-28T19:43:30.474Z,24.50
2018-05-28T19:45:56.570Z,24.43
2018-05-28T19:48:22.368Z,24.39
2018-05-28T19:50:48.145Z,24.34
2018-05-28T19:53:13.932Z,24.36
2018-05-28T19:55:39.761Z,24.35
2018-05-28T19:58:05.570Z,24.29
2018-05-28T20:00:31.362Z,24.24
2018-05-28T20:02:57.181Z,24.22
2018-05-28T20:05:22.964Z,24.22
2018-05-28T20:07:48.754Z,24.21
2018-05-28T20:10:14.558Z,24.18
2018-05-28T20:12:40.349Z,24.09
2018-05-28T20:15:06.154Z,23.94
2018-05-28T20:17:31.952Z,23.99
2018-05-28T20:19:57.765Z,23.96
2018-05-28T20:22:23.595Z,23.90
2018-05-28T20:24:49.386Z,23.88
2018-05-28T20:27:15.169Z,23.80
2018-05-28T20:29:40.969Z,23.68
2018-05-28T20:32:06.781Z,23.53
2018-05-28T20:34:32.590Z,23.50
2018-05-28T20:36:58.429Z,23.46
2018-05-28T20:39:24.211Z,23.41
2018-05-28T20:41:50.022Z,23.30
2018-05-28T20:44:15.812Z,23.20
2018-05-28T20:46:41.596Z,23.22
2018-05-28T20:49:07.414Z,23.21
2018-05-28T20:51:33.204Z,23.27
2018-05-28T20:53:59.023Z,23.18
2018-05-28T20:56:24.818Z,23.22
2018-05-28T20:58:50.600Z,23.30
2018-05-28T21:01:16.394Z,23.29
2018-05-28T21:03:42.181Z,23.17
2018-05-28T21:06:07.987Z,23.16
2018-05-28T21:08:34.113Z,23.27
2018-05-28T21:10:59.900Z,23.10
2018-05-28T21:13:25.670Z,23.05
2018-05-28T21:15:51.492Z,23.07
2018-05-28T21:18:17.292Z,23.07
2018-05-28T21:20:43.076Z,23.02
2018-05-28T21:23:08.894Z,22.99
2018-05-28T21:25:34.693Z,22.92
2018-05-28T21:28:00.476Z,22.89
2018-05-28T21:30:26.290Z,22.86
2018-05-28T21:32:52.081Z,22.87
2018-05-28T21:35:17.901Z,22.81
2018-05-28T21:37:43.664Z,22.78
2018-05-28T21:40:09.437Z,22.78
2018-05-28T21:42:35.480Z,22.81
2018-05-28T21:45:01.282Z,22.77
2018-05-28T21:47:27.085Z,22.68
2018-05-28T21:49:52.924Z,22.70
2018-05-28T21:52:18.738Z,22.63
2018-05-28T21:54:44.532Z,22.61
2018-05-28T21:57:10.358Z,22.56
2018-05-28T21:59:36.150Z,22.50
2018-05-28T22:02:01.946Z,22.50
2018-05-28T22:04:27.754Z,22.57
2018-05-28T22:06:53.541Z,22.59
2018-05-28T22:09:19.312Z,22.55
2018-05-28T22:11:45.138Z,22.53
2018-05-28T22:14:10.939Z,22.50
2018-05-28T22:16:36.743Z,22.51
2018-05-28T22:19:02.565Z,22.49
2018-05-28T22:21:28.370Z,22.42
2018-05-28T22:23:54.197Z,22.40
2018-05-28T22:26:20.001Z,22.44
2018-05-28T22:28:45.828Z,22.37
2018-05-28T22:31:11.610Z,22.34
2018-05-28T22:33:37.464Z,22.31
2018-05-28T22:36:03.265Z,22.30
2018-05-28T22:38:29.059Z,22.31
2018-05-28T22:40:54.917Z,22.27
2018-05-28T22:43:20.705Z,22.27
2018-05-28T22:45:46.494Z,22.28
2018-05-28T22:48:12.294Z,22.27
2018-05-28T22:50:38.089Z,22.31
2018-05-28T22:53:03.895Z,22.32
2018-05-28T22:55:29.686Z,22.24
2018-05-28T22:57:55.528Z,22.19
2018-05-28T23:00:33.207Z,22.18
2018-05-28T23:02:59.043Z,22.17
2018-05-28T23:05:24.826Z,22.17
2018-05-28T23:07:50.615Z,22.18
2018-05-28T23:10:16.449Z,22.16
2018-05-28T23:12:42.249Z,22.15
2018-05-28T23:15:08.038Z,22.09
2018-05-28T23:17:33.929Z,22.08
2018-05-28T23:19:59.716Z,22.05
2018-05-28T23:22:25.540Z,22.00
2018-05-28T23:24:51.372Z,22.03
2018-05-28T23:27:17.153Z,21.98
2018-05-28T23:29:42.945Z,21.92
2018-05-28T23:32:08.758Z,21.93
2018-05-28T23:34:34.648Z,21.96
2018-05-28T23:37:00.594Z,21.89
2018-05-28T23:39:26.396Z,21.81
2018-05-28T23:41:52.181Z,21.81
2018-05-28T23:44:17.976Z,21.82
2018-05-28T23:46:44.007Z,21.79
2018-05-28T23:49:09.801Z,21.77
2018-05-28T23:51:35.593Z,21.74
2018-05-28T23:54:01.477Z,21.72
2018-05-28T23:56:27.268Z,21.70
2018-05-28T23:58:53.057Z,21.69
